Time;durP1;ratioP1;P1;durP2;ratioP2;P2;SDS_P1;SDS_P2;PMS_P1;PMS_P2;Temp;Humidity;BMP_temperature;BMP_pressure;BME280_temperature;BME280_humidity;BME280_pressure;Samples;Min_cycle;Max_cycle;Signal;HPM_P1;HPM_P2
2023/01/20 00:02:10;;;;;;;15.05;8.08;;;;;;;;;;1898756;75;21084;-60
2023/01/20 00:04:38;;;;;;;12.73;7.20;;;;;;;;;;1898852;75;21033;-60
2023/01/20 00:07:07;;;;;;;10.93;6.60;;;;;;;;;;1898895;75;21033;-60
2023/01/20 00:09:35;;;;;;;10.95;6.95;;;;;;;;;;1898886;75;21013;-60
2023/01/20 00:12:04;;;;;;;11.15;7.33;;;;;;;;;;1898862;75;21029;-60
2023/01/20 00:14:33;;;;;;;16.05;8.08;;;;;;;;;;1898792;75;21045;-60
2023/01/20 00:17:01;;;;;;;12.93;8.10;;;;;;;;;;1898878;75;21013;-60
2023/01/20 00:19:30;;;;;;;11.75;6.92;;;;;;;;;;1898796;75;21029;-60
2023/01/20 00:21:58;;;;;;;13.40;7.90;;;;;;;;;;1891164;75;21058;-60
2023/01/20 00:24:27;;;;;;;14.35;9.25;;;;;;;;;;1888845;76;21057;-60
2023/01/20 00:26:55;;;;;;;15.00;7.65;;;;;;;;;;1888852;76;21030;-60
2023/01/20 00:29:24;;;;;;;9.70;7.40;;;;;;;;;;1888773;74;21108;-60
2023/01/20 00:31:53;;;;;;;9.90;7.75;;;;;;;;;;1888693;74;21101;-60
2023/01/20 00:34:21;;;;;;;14.30;7.35;;;;;;;;;;1888725;76;21041;-60
2023/01/20 00:36:50;;;;;;;11.60;7.37;;;;;;;;;;1888718;76;21085;-60
2023/01/20 00:39:18;;;;;;;17.05;7.65;;;;;;;;;;1888762;75;21183;-60
2023/01/20 00:41:47;;;;;;;11.63;6.90;;;;;;;;;;1888828;76;21092;-60
2023/01/20 00:44:15;;;;;;;15.98;6.05;;;;;;;;;;1888803;75;21104;-60
2023/01/20 00:46:44;;;;;;;16.57;7.05;;;;;;;;;;1888863;74;21033;-60
2023/01/20 00:49:12;;;;;;;12.90;6.72;;;;;;;;;;1888713;76;21029;-60
2023/01/20 00:51:41;;;;;;;10.05;7.00;;;;;;;;;;1888708;74;21111;-60
2023/01/20 00:54:09;;;;;;;11.78;6.97;;;;;;;;;;1888718;76;21097;-60
2023/01/20 00:56:38;;;;;;;10.08;7.10;;;;;;;;;;1888722;76;21062;-60
2023/01/20 00:59:09;;;;;;;17.30;9.58;;;;;;;;;;1888691;76;21128;-60
2023/01/20 01:01:37;;;;;;;15.10;7.35;;;;;;;;;;1888880;76;21492;-60
2023/01/20 01:04:06;;;;;;;14.30;6.70;;;;;;;;;;1888719;76;21045;-60
2023/01/20 01:06:34;;;;;;;13.38;7.60;;;;;;;;;;1888711;76;21030;-60
2023/01/20 01:09:03;;;;;;;14.23;8.08;;;;;;;;;;1888807;76;21022;-60
2023/01/20 01:11:31;;;;;;;14.55;8.08;;;;;;;;;;1888715;74;21046;-60
2023/01/20 01:14:01;;;;;;;17.07;7.62;;;;;;;;;;1888716;76;21056;-60
2023/01/20 01:16:29;;;;;;;13.68;7.80;;;;;;;;;;1888735;76;21073;-60
2023/01/20 01:18:57;;;;;;;11.63;7.62;;;;;;;;;;1888758;76;21026;-60
2023/01/20 01:21:27;;;;;;;11.90;7.92;;;;;;;;;;1892105;75;21124;-60
2023/01/20 01:23:55;;;;;;;9.78;7.40;;;;;;;;;;1898617;75;21053;-60
2023/01/20 01:26:24;;;;;;;12.53;7.78;;;;;;;;;;1898760;75;21046;-60
2023/01/20 01:28:53;;;;;;;16.00;7.62;;;;;;;;;;1898746;75;21061;-60
2023/01/20 01:31:21;;;;;;;14.70;8.58;;;;;;;;;;1898634;75;21147;-60
2023/01/20 01:33:50;;;;;;;11.48;7.42;;;;;;;;;;1898744;75;21085;-60
2023/01/20 01:36:18;;;;;;;11.40;6.87;;;;;;;;;;1898680;75;21045;-60
2023/01/20 01:38:47;;;;;;;11.57;7.47;;;;;;;;;;1898618;75;21049;-60
2023/01/20 01:41:16;;;;;;;15.45;8.10;;;;;;;;;;1898678;75;21053;-60
2023/01/20 01:44:05;;;;;;;13.98;7.60;;;;;;;;;;1898747;75;21025;-60
2023/01/20 01:46:33;;;;;;;10.90;7.62;;;;;;;;;;1898728;75;21087;-60
2023/01/20 01:49:12;;;;;;;13.58;7.40;;;;;;;;;;1898626;75;21103;-60
2023/01/20 01:51:42;;;;;;;11.55;8.73;;;;;;;;;;1898633;75;21049;-60
2023/01/20 01:54:12;;;;;;;11.12;7.85;;;;;;;;;;1898646;75;21451;-60
2023/01/20 01:56:42;;;;;;;11.38;6.60;;;;;;;;;;1896999;75;21065;-60
2023/01/20 01:59:11;;;;;;;12.85;7.67;;;;;;;;;;1898560;75;21076;-60
2023/01/20 02:01:41;;;;;;;16.87;7.53;;;;;;;;;;1898740;75;21089;-60
2023/01/20 02:04:12;;;;;;;10.68;7.37;;;;;;;;;;1897892;75;21056;-60
2023/01/20 02:06:42;;;;;;;17.73;7.12;;;;;;;;;;1898780;75;21022;-60
2023/01/20 02:09:10;;;;;;;14.00;7.78;;;;;;;;;;1898735;75;21089;-60
2023/01/20 02:11:40;;;;;;;13.08;7.92;;;;;;;;;;1898605;75;21041;-60
2023/01/20 02:14:09;;;;;;;12.23;7.22;;;;;;;;;;1898744;75;21021;-60
2023/01/20 02:16:44;;;;;;;16.50;8.78;;;;;;;;;;1898673;75;21112;-60
2023/01/20 02:19:20;;;;;;;20.90;10.75;;;;;;;;;;1898085;75;21033;-60
2023/01/20 02:21:50;;;;;;;26.07;10.28;;;;;;;;;;1896426;75;21115;-60
2023/01/20 02:24:35;;;;;;;36.45;10.43;;;;;;;;;;1898598;75;21065;-60
2023/01/20 02:27:03;;;;;;;;;;;;;;;;;;1901505;75;21057;-60
2023/01/20 02:29:33;;;;;;;18.67;7.97;;;;;;;;;;1898648;75;20128;-60
2023/01/20 02:32:09;;;;;;;23.18;9.93;;;;;;;;;;1897251;75;21045;-60
2023/01/20 02:34:38;;;;;;;25.72;9.45;;;;;;;;;;1898597;75;21057;-60
2023/01/20 02:37:08;;;;;;;22.80;11.05;;;;;;;;;;1897227;75;21503;-60
2023/01/20 02:39:44;;;;;;;27.62;11.33;;;;;;;;;;1898146;75;21069;-60
2023/01/20 02:42:14;;;;;;;25.68;10.23;;;;;;;;;;1898431;75;21033;-60
2023/01/20 02:44:53;;;;;;;24.27;10.40;;;;;;;;;;1898776;75;21009;-60
2023/01/20 02:47:22;;;;;;;20.32;11.43;;;;;;;;;;1898614;75;21218;-60
2023/01/20 02:49:52;;;;;;;15.53;8.00;;;;;;;;;;1898638;75;21127;-60
2023/01/20 02:52:22;;;;;;;19.50;9.75;;;;;;;;;;1898555;75;21119;-60
2023/01/20 02:54:52;;;;;;;21.42;10.68;;;;;;;;;;1898016;75;21459;-60
2023/01/20 02:57:28;;;;;;;21.07;9.18;;;;;;;;;;1898595;75;21498;-60
2023/01/20 02:59:58;;;;;;;22.25;10.20;;;;;;;;;;1898712;75;21029;-60
2023/01/20 03:02:27;;;;;;;15.80;8.55;;;;;;;;;;1898600;75;21053;-60
2023/01/20 03:04:57;;;;;;;20.40;11.08;;;;;;;;;;1898660;75;21569;-60
2023/01/20 03:07:27;;;;;;;18.10;9.63;;;;;;;;;;1896976;75;21163;-60
2023/01/20 03:09:57;;;;;;;23.55;11.55;;;;;;;;;;1898741;75;21353;-60
2023/01/20 03:12:26;;;;;;;24.67;13.35;;;;;;;;;;1898897;74;21013;-60
2023/01/20 03:14:55;;;;;;;37.90;16.17;;;;;;;;;;1898774;75;21030;-60
2023/01/20 03:17:23;;;;;;;45.60;18.30;;;;;;;;;;1898839;75;21046;-60
2023/01/20 03:19:52;;;;;;;120.30;38.78;;;;;;;;;;1898883;75;21010;-60
2023/01/20 03:22:20;;;;;;;109.87;36.35;;;;;;;;;;1893519;75;21163;-60
2023/01/20 03:24:49;;;;;;;93.33;32.30;;;;;;;;;;1883742;76;21050;-60
2023/01/20 03:27:18;;;;;;;121.80;36.05;;;;;;;;;;1883610;76;21042;-60
2023/01/20 03:29:46;;;;;;;85.05;32.38;;;;;;;;;;1883590;75;21051;-60
2023/01/20 03:32:15;;;;;;;56.00;22.32;;;;;;;;;;1883528;76;21050;-60
2023/01/20 03:34:43;;;;;;;55.92;20.15;;;;;;;;;;1883618;76;21057;-60
2023/01/20 03:37:12;;;;;;;36.70;15.25;;;;;;;;;;1883587;76;21480;-60
2023/01/20 03:39:40;;;;;;;27.93;13.48;;;;;;;;;;1883637;76;21120;-60
2023/01/20 03:42:10;;;;;;;27.50;12.10;;;;;;;;;;1883632;76;21112;-60
2023/01/20 03:44:40;;;;;;;33.55;12.98;;;;;;;;;;1883641;76;21014;-60
2023/01/20 03:47:13;;;;;;;22.52;11.00;;;;;;;;;;1883584;76;21203;-60
2023/01/20 03:49:46;;;;;;;21.90;11.55;;;;;;;;;;1883694;76;21104;-60
2023/01/20 03:52:18;;;;;;;28.15;11.75;;;;;;;;;;1883640;76;21022;-60
2023/01/20 03:54:51;;;;;;;24.90;12.47;;;;;;;;;;1883057;76;21030;-60
2023/01/20 03:57:21;;;;;;;19.62;10.88;;;;;;;;;;1882257;76;21125;-60
2023/01/20 03:59:51;;;;;;;22.62;10.23;;;;;;;;;;1883407;76;21062;-60
2023/01/20 04:02:19;;;;;;;18.50;9.93;;;;;;;;;;1883684;76;21042;-60
2023/01/20 04:04:49;;;;;;;27.50;10.75;;;;;;;;;;1883650;76;21049;-60
2023/01/20 04:07:19;;;;;;;24.02;11.25;;;;;;;;;;1883603;75;21053;-60
2023/01/20 04:09:49;;;;;;;22.40;13.75;;;;;;;;;;1883748;76;21069;-60
2023/01/20 04:12:18;;;;;;;47.45;22.60;;;;;;;;;;1883607;76;21050;-60
2023/01/20 04:14:46;;;;;;;43.52;20.85;;;;;;;;;;1883630;76;21050;-60
2023/01/20 04:17:15;;;;;;;48.23;20.88;;;;;;;;;;1883608;76;21042;-60
2023/01/20 04:19:44;;;;;;;36.33;15.15;;;;;;;;;;1883491;76;21046;-60
2023/01/20 04:22:14;;;;;;;33.70;14.20;;;;;;;;;;1883520;75;21116;-60
2023/01/20 04:24:56;;;;;;;37.17;13.43;;;;;;;;;;1883184;76;21034;-60
2023/01/20 04:27:24;;;;;;;22.95;11.08;;;;;;;;;;1883476;76;21092;-60
2023/01/20 04:29:53;;;;;;;29.60;14.03;;;;;;;;;;1883479;75;21410;-60
2023/01/20 04:32:21;;;;;;;34.30;14.10;;;;;;;;;;1883546;76;21100;-60
2023/01/20 04:34:51;;;;;;;34.92;12.15;;;;;;;;;;1883441;76;21077;-60
2023/01/20 04:37:19;;;;;;;34.63;12.13;;;;;;;;;;1883497;76;21026;-60
2023/01/20 04:39:48;;;;;;;83.97;24.85;;;;;;;;;;1883465;76;21062;-60
2023/01/20 04:42:17;;;;;;;55.38;21.17;;;;;;;;;;1883502;76;21112;-60
2023/01/20 04:44:45;;;;;;;41.28;16.17;;;;;;;;;;1883531;76;21046;-60
2023/01/20 04:47:14;;;;;;;37.20;17.05;;;;;;;;;;1883586;76;21025;-60
2023/01/20 04:49:42;;;;;;;40.28;17.07;;;;;;;;;;1883534;75;21034;-60
2023/01/20 04:52:11;;;;;;;54.20;17.32;;;;;;;;;;1883385;76;21089;-60
2023/01/20 04:54:39;;;;;;;64.12;24.82;;;;;;;;;;1883478;76;21100;-60
2023/01/20 04:57:08;;;;;;;66.90;23.50;;;;;;;;;;1883541;76;21108;-60
2023/01/20 04:59:36;;;;;;;57.27;21.57;;;;;;;;;;1883514;75;21072;-60
2023/01/20 05:02:05;;;;;;;27.27;14.30;;;;;;;;;;1883474;76;21050;-60
2023/01/20 05:04:34;;;;;;;37.65;14.15;;;;;;;;;;1883461;76;21131;-60
2023/01/20 05:07:02;;;;;;;35.28;14.58;;;;;;;;;;1883516;76;21210;-60
2023/01/20 05:09:30;;;;;;;24.32;13.22;;;;;;;;;;1883392;76;21097;-60
2023/01/20 05:11:59;;;;;;;31.48;12.45;;;;;;;;;;1883362;76;21038;-60
2023/01/20 05:14:28;;;;;;;33.70;15.38;;;;;;;;;;1883456;76;21049;-61
2023/01/20 05:16:56;;;;;;;59.55;18.10;;;;;;;;;;1883547;76;21068;-60
2023/01/20 05:19:24;;;;;;;50.00;17.12;;;;;;;;;;1883492;76;21100;-61
2023/01/20 05:21:53;;;;;;;53.28;20.50;;;;;;;;;;1883419;76;21179;-62
2023/01/20 05:24:22;;;;;;;62.08;20.62;;;;;;;;;;1887417;75;21041;-60
2023/01/20 05:26:51;;;;;;;90.90;24.77;;;;;;;;;;1888545;74;21089;-60
2023/01/20 05:29:19;;;;;;;54.42;20.37;;;;;;;;;;1888627;76;21037;-60
2023/01/20 05:31:47;;;;;;;54.15;22.98;;;;;;;;;;1888556;76;21108;-60
2023/01/20 05:34:17;;;;;;;36.80;17.15;;;;;;;;;;1888745;76;21026;-60
2023/01/20 05:36:45;;;;;;;69.30;25.12;;;;;;;;;;1888803;76;21128;-61
2023/01/20 05:39:14;;;;;;;66.87;22.73;;;;;;;;;;1888699;75;21042;-61
2023/01/20 05:41:45;;;;;;;45.78;19.12;;;;;;;;;;1888654;76;21091;-60
2023/01/20 05:44:13;;;;;;;46.15;16.95;;;;;;;;;;1888672;76;21050;-61
2023/01/20 05:46:42;;;;;;;47.03;16.17;;;;;;;;;;1888706;75;21033;-61
2023/01/20 05:49:11;;;;;;;48.13;18.40;;;;;;;;;;1888643;76;21098;-61
2023/01/20 05:51:40;;;;;;;45.30;19.35;;;;;;;;;;1888662;76;21037;-61
2023/01/20 05:54:08;;;;;;;61.00;20.40;;;;;;;;;;1888818;76;21041;-61
2023/01/20 05:56:37;;;;;;;38.00;18.15;;;;;;;;;;1888714;74;21026;-61
2023/01/20 06:11:16;;;;;;;43.48;20.65;;;6.50;72.50;;;;;;1959140;73;22094;-61
2023/01/20 06:13:48;;;;;;;42.38;21.12;;;6.50;74.40;;;;;;1918555;75;21065;-61
2023/01/20 06:16:18;;;;;;;40.30;20.20;;;6.40;74.20;;;;;;1918383;74;21118;-61
2023/01/20 06:18:47;;;;;;;40.25;21.17;;;6.30;73.90;;;;;;1918392;74;21046;-61
2023/01/20 06:21:15;;;;;;;48.58;20.88;;;6.10;73.70;;;;;;1918332;74;21022;-61
2023/01/20 06:23:45;;;;;;;40.73;19.92;;;6.10;73.80;;;;;;1918506;74;21108;-61
2023/01/20 06:26:14;;;;;;;36.30;19.77;;;6.00;73.80;;;;;;1918528;75;20987;-61
2023/01/20 06:28:44;;;;;;;41.48;19.48;;;6.00;74.20;;;;;;1918510;75;21441;-60
2023/01/20 06:31:15;;;;;;;45.92;16.90;;;6.00;74.30;;;;;;1918528;75;21007;-60
2023/01/20 06:33:44;;;;;;;39.50;18.17;;;6.00;74.40;;;;;;1918610;75;20995;-61
2023/01/20 06:36:15;;;;;;;40.30;19.85;;;6.20;74.30;;;;;;1918509;75;21110;-61
2023/01/20 06:38:49;;;;;;;33.58;18.62;;;6.20;74.30;;;;;;1918459;74;21077;-61
2023/01/20 06:41:14;;;;;;;50.28;24.52;;;6.30;74.20;;;;;;1917891;74;21045;-60
2023/01/20 06:43:43;;;;;;;40.52;20.50;;;6.30;74.20;;;;;;1918403;74;21438;-61
2023/01/20 06:46:14;;;;;;;39.18;18.92;;;6.40;74.10;;;;;;1918573;75;21543;-61
2023/01/20 06:48:43;;;;;;;39.73;21.00;;;6.40;74.20;;;;;;1918506;73;21098;-60
2023/01/20 06:51:17;;;;;;;51.37;22.55;;;6.50;74.20;;;;;;1918440;75;21023;-60
2023/01/20 06:53:47;;;;;;;49.42;22.05;;;6.50;74.10;;;;;;1918525;75;21019;-60
2023/01/20 06:56:16;;;;;;;38.42;21.25;;;6.50;73.80;;;;;;1918425;75;21076;-60
2023/01/20 06:58:45;;;;;;;37.95;22.85;;;6.50;73.90;;;;;;1918304;75;20999;-60
2023/01/20 07:01:25;;;;;;;41.70;22.60;;;6.50;74.00;;;;;;1918414;74;21106;-60
2023/01/20 07:03:55;;;;;;;44.70;23.35;;;6.50;73.80;;;;;;1917140;74;21019;-59
2023/01/20 07:06:37;;;;;;;38.67;21.35;;;6.50;73.90;;;;;;1918358;75;20999;-59
2023/01/20 07:09:10;;;;;;;37.88;20.37;;;6.50;73.90;;;;;;1938452;73;21101;-59
2023/01/20 07:11:39;;;;;;;43.98;21.62;;;6.50;73.70;;;;;;1949430;73;21146;-60
2023/01/20 07:14:09;;;;;;;37.53;19.32;;;6.60;73.90;;;;;;1949517;73;21086;-60
2023/01/20 07:16:38;;;;;;;38.13;21.05;;;6.60;73.80;;;;;;1949452;73;21045;-60
2023/01/20 07:19:06;;;;;;;37.70;20.80;;;;;;;;;;1949350;73;20984;-60
2023/01/20 07:21:35;;;;;;;38.88;22.07;;;;;;;;;;1949037;73;21176;-60
2023/01/20 07:24:04;;;;;;;38.33;22.17;;;;;;;;;;1948810;73;21020;-60
2023/01/20 07:26:32;;;;;;;37.67;22.13;;;;;;;;;;1948842;73;21005;-60
2023/01/20 07:29:00;;;;;;;37.40;18.70;;;;;;;;;;1948786;74;21028;-60
2023/01/20 07:31:34;;;;;;;41.23;26.30;;;;;;;;;;1948744;73;21094;-60
2023/01/20 07:33:59;;;;;;;36.03;22.80;;;;;;;;;;1947308;74;21479;-61
2023/01/20 07:36:28;;;;;;;33.18;18.90;;;;;;;;;;1948779;73;21025;-61
2023/01/20 07:38:56;;;;;;;37.23;20.55;;;;;;;;;;1948822;73;21009;-61
2023/01/20 07:41:25;;;;;;;35.63;19.15;;;;;;;;;;1948841;74;21057;-61
2023/01/20 07:43:53;;;;;;;43.83;18.25;;;;;;;;;;1948806;74;21064;-61
2023/01/20 07:46:22;;;;;;;36.53;18.42;;;;;;;;;;1948749;73;21025;-61
2023/01/20 07:48:50;;;;;;;32.78;18.20;;;;;;;;;;1948735;73;21076;-60
2023/01/20 07:51:19;;;;;;;32.90;18.45;;;;;;;;;;1948789;73;21094;-60
2023/01/20 07:53:49;;;;;;;29.60;17.10;;;;;;;;;;1948881;73;21005;-61
2023/01/20 07:56:19;;;;;;;28.60;17.17;;;;;;;;;;1948784;73;21012;-61
2023/01/20 07:58:49;;;;;;;30.02;16.62;;;;;;;;;;1948787;73;21005;-60
2023/01/20 08:01:18;;;;;;;27.37;16.65;;;;;;;;;;1948772;73;21001;-61
2023/01/20 08:03:47;;;;;;;38.60;18.48;;;;;;;;;;1948732;74;21061;-60
2023/01/20 08:06:16;;;;;;;15.48;8.93;;;;;;;;;;1947506;74;21111;-62
2023/01/20 08:08:45;;;;;;;18.80;11.10;;;;;;;;;;1941360;72;21156;-62
2023/01/20 08:11:14;;;;;;;26.35;12.58;;;;;;;;;;1935428;74;21147;-64
2023/01/20 08:13:43;;;;;;;20.75;10.95;;;;;;;;;;1935307;73;21041;-63
2023/01/20 08:16:13;;;;;;;18.45;10.88;;;;;;;;;;1935579;73;21017;-63
2023/01/20 08:18:41;;;;;;;25.88;15.78;;;;;;;;;;1935530;74;21071;-58
2023/01/20 08:21:18;;;;;;;28.32;16.52;;;;;;;;;;1933333;74;21047;-59
2023/01/20 08:23:46;;;;;;;29.10;17.02;;;;;;;;;;1931320;74;21504;-58
2023/01/20 08:26:15;;;;;;;31.60;16.45;;;;;;;;;;1931150;74;21100;-58
2023/01/20 08:28:44;;;;;;;30.62;16.42;;;;;;;;;;1931010;74;20991;-58
2023/01/20 08:31:13;;;;;;;28.27;16.12;;;;;;;;;;1931229;74;21096;-59
2023/01/20 08:33:43;;;;;;;30.80;16.55;;;;;;;;;;1931176;74;21102;-58
2023/01/20 08:36:16;;;;;;;25.40;15.03;;;;;;;;;;1931180;74;21003;-59
2023/01/20 08:38:44;;;;;;;28.15;13.15;;;;;;;;;;1931196;74;21050;-59
2023/01/20 08:41:14;;;;;;;28.77;16.07;;;;;;;;;;1931132;74;21027;-59
2023/01/20 08:43:43;;;;;;;27.80;17.42;;;;;;;;;;1931025;74;21090;-58
2023/01/20 08:46:12;;;;;;;32.08;18.65;;;;;;;;;;1931238;74;21019;-58
2023/01/20 08:48:41;;;;;;;27.48;13.78;;;;;;;;;;1931195;74;21011;-58
2023/01/20 08:51:12;;;;;;;28.25;15.43;;;;;;;;;;1931091;74;21020;-58
2023/01/20 08:53:41;;;;;;;19.87;13.38;;;;;;;;;;1931173;74;21116;-58
2023/01/20 08:56:10;;;;;;;29.27;14.25;;;;;;;;;;1931318;74;20995;-59
2023/01/20 08:58:39;;;;;;;23.32;14.15;;;;;;;;;;1931200;74;20999;-61
2023/01/20 09:01:08;;;;;;;25.50;14.90;;;;;;;;;;1931245;74;21117;-59
2023/01/20 09:03:36;;;;;;;29.42;16.07;;;;;;;;;;1931133;74;20991;-58
2023/01/20 09:06:05;;;;;;;31.17;17.27;;;;;;;;;;1931082;74;21062;-60
2023/01/20 09:08:34;;;;;;;24.90;13.95;;;;;;;;;;1931376;74;21102;-58
2023/01/20 09:11:03;;;;;;;18.17;11.48;;;;;;;;;;1931148;74;21011;-58
2023/01/20 09:13:32;;;;;;;26.93;15.70;;;;;;;;;;1931030;74;21097;-59
2023/01/20 09:16:00;;;;;;;23.38;14.47;;;;;;;;;;1931261;74;21342;-59
2023/01/20 09:18:30;;;;;;;26.87;13.98;;;;;;;;;;1931006;74;21098;-58
2023/01/20 09:20:58;;;;;;;22.60;13.68;;;;;;;;;;1931081;74;21097;-59
2023/01/20 09:23:27;;;;;;;34.18;20.08;;;;;;;;;;1931151;74;21058;-59
2023/01/20 09:25:57;;;;;;;45.25;28.32;;;;;;;;;;1931044;74;21042;-58
2023/01/20 09:28:25;;;;;;;22.37;13.65;;;;;;;;;;1931001;74;21546;-58
2023/01/20 09:31:05;;;;;;;23.92;13.65;;;;;;;;;;1931124;74;21087;-59
2023/01/20 09:33:36;;;;;;;19.82;11.83;;;;;;;;;;1931190;74;21031;-58
2023/01/20 09:36:06;;;;;;;22.60;12.40;;;;;;;;;;1931061;74;21066;-58
2023/01/20 09:44:28;;;;;;;25.52;14.25;;;;;;;;;;1931260;74;21101;-57
2023/01/20 09:47:19;;;;;;;26.87;14.68;;;;;;;;;;1931210;74;21082;-57
2023/01/20 09:55:26;;;;;;;21.85;13.68;;;;;;;;;;1900347;75;21139;-57
2023/01/20 09:57:58;;;;;;;25.60;11.22;;;;;;;;;;1899946;74;21138;-57
2023/01/20 10:00:27;;;;;;;25.08;13.58;;;;;;;;;;1900309;74;21546;-57
2023/01/20 10:02:57;;;;;;;26.10;14.83;;;;;;;;;;1900393;75;21613;-57
2023/01/20 10:05:31;;;;;;;26.35;14.35;;;;;;;;;;1900155;74;21018;-57
2023/01/20 10:07:58;;;;;;;25.82;14.05;;;;;;;;;;1899797;75;21080;-58
2023/01/20 10:10:34;;;;;;;27.32;14.87;;;;;;;;;;1900152;74;21100;-57
2023/01/20 10:13:10;;;;;;;25.60;12.23;;;;;;;;;;1899797;75;21092;-57
2023/01/20 10:15:40;;;;;;;29.35;15.20;;;;;;;;;;1900146;75;21103;-58
2023/01/20 10:18:10;;;;;;;37.55;18.42;;;;;;;;;;1900257;75;21008;-56
2023/01/20 10:20:44;;;;;;;25.30;14.68;;;;;;;;;;1900136;74;21576;-57
2023/01/20 10:23:20;;;;;;;29.80;15.43;;;;;;;;;;1900532;74;20982;-57
2023/01/20 10:26:07;;;;;;;29.32;16.95;;;;;;;;;;1899714;75;21578;-57
2023/01/20 10:28:41;;;;;;;22.42;13.20;;;;;;;;;;1900608;75;21037;-57
2023/01/20 10:31:11;;;;;;;22.45;12.95;;;;;;;;;;1920965;74;20987;-58
2023/01/20 10:33:41;;;;;;;26.05;15.13;;;;;;;;;;1924702;73;21096;-58
2023/01/20 10:36:11;;;;;;;24.43;12.28;;;;;;;;;;1935404;74;21512;-57
2023/01/20 10:38:44;;;;;;;25.12;12.47;;;;;;;;;;1936741;74;21025;-58
2023/01/20 10:41:24;;;;;;;27.65;14.50;;;;;;;;;;1940493;73;21093;-58
2023/01/20 10:43:53;;;;;;;25.88;12.70;;;;;;;;;;1941736;72;21137;-58
2023/01/20 10:46:26;;;;;;;23.85;12.80;;;;;;;;;;1952790;72;21266;-57
2023/01/20 10:48:56;;;;;;;22.27;12.60;;;;;;;;;;1944452;72;21579;-57
2023/01/20 10:51:30;;;;;;;27.07;13.55;;;;;;;;;;1959249;72;21081;-58
2023/01/20 10:53:59;;;;;;;21.68;12.45;;;;;;;;;;1947304;72;21389;-58
2023/01/20 10:56:32;;;;;;;26.37;14.05;;;;;;;;;;1953156;72;21464;-57
2023/01/20 10:59:02;;;;;;;26.12;11.35;;;;;;;;;;1947665;74;21048;-57
2023/01/20 11:01:30;;;;;;;25.17;13.75;;;;;;;;;;1931324;72;21110;-55
2023/01/20 11:03:59;;;;;;;26.10;13.93;;;;;;;;;;1953839;72;21041;-59
2023/01/20 11:06:28;;;;;;;25.27;12.82;;;;;;;;;;1986886;72;21088;-58
2023/01/20 11:08:56;;;;;;;25.52;13.10;;;;;;;;;;1987390;72;21076;-58
2023/01/20 11:11:25;;;;;;;25.48;14.65;;;;;;;;;;1987629;72;21108;-59
2023/01/20 11:13:54;;;;;;;25.62;12.10;;;;;;;;;;1987774;72;21014;-59
2023/01/20 11:16:23;;;;;;;24.92;13.43;;;;;;;;;;1987815;72;21023;-58
2023/01/20 11:18:56;;;;;;;28.40;13.65;;;;;;;;;;1987791;72;21437;-59
2023/01/20 11:21:25;;;;;;;28.70;14.70;;;;;;;;;;1988011;72;20962;-59
2023/01/20 11:23:57;;;;;;;23.67;12.07;;;;;;;;;;1987710;72;21026;-59
2023/01/20 11:26:36;;;;;;;20.82;11.08;;;;;;;;;;1987708;72;21065;-58
2023/01/20 11:29:12;;;;;;;25.80;13.10;;;;;;;;;;1987701;72;21456;-59
2023/01/20 11:31:42;;;;;;;34.23;14.03;;;;;;;;;;1987654;72;21139;-59
2023/01/20 11:34:21;;;;;;;24.85;13.35;;;;;;;;;;1987643;72;21092;-59
2023/01/20 11:36:50;;;;;;;28.70;13.90;;;;;;;;;;1987735;72;21030;-58
2023/01/20 11:39:26;;;;;;;31.55;14.40;;;;;;;;;;1987810;72;21007;-58
2023/01/20 11:42:11;;;;;;;27.42;14.43;;;;;;;;;;1987733;72;21030;-59
2023/01/20 11:44:47;;;;;;;23.92;13.13;;;;;;;;;;1987694;72;21006;-59
2023/01/20 11:47:23;;;;;;;31.80;17.15;;;;;;;;;;1987725;72;21065;-58
2023/01/20 11:50:10;;;;;;;17.90;10.45;;;;;;;;;;1987804;72;21003;-59
2023/01/20 11:52:41;;;;;;;33.90;16.17;;;;;;;;;;1987767;72;20974;-58
2023/01/20 11:55:14;;;;;;;35.17;16.62;;;;;;;;;;1987836;72;21633;-59
2023/01/20 11:57:58;;;;;;;37.28;17.42;;;;;;;;;;1987794;72;21002;-59
2023/01/20 12:00:31;;;;;;;31.73;15.50;;;;;;;;;;1987825;72;20983;-58
2023/01/20 12:03:01;;;;;;;33.25;17.10;;;;;;;;;;1909923;75;21043;-59
2023/01/20 12:05:34;;;;;;;27.62;13.83;;;;;;;;;;1911259;75;21100;-58
2023/01/20 12:08:03;;;;;;;35.85;17.45;;;;;;;;;;1909590;75;21054;-58
2023/01/20 12:10:36;;;;;;;26.45;15.23;;;;;;;;;;1894717;75;21046;-59
2023/01/20 12:13:22;;;;;;;34.45;17.73;;;;;;;;;;1902629;74;21045;-59
2023/01/20 12:15:54;;;;;;;28.30;14.68;;;;;;;;;;1902746;75;21464;-59
2023/01/20 12:18:30;;;;;;;23.85;12.95;;;;;;;;;;1902619;75;21457;-59
2023/01/20 12:21:00;;;;;;;20.00;9.10;;;;;;;;;;1902767;74;21120;-59
2023/01/20 12:23:47;;;;;;;22.17;12.68;;;;;;;;;;1955846;73;21452;-59
2023/01/20 12:26:17;;;;;;;21.33;11.50;;;;;;;;;;1955770;73;21151;-59
2023/01/20 12:28:47;;;;;;;30.35;13.62;;;;;;;;;;1955754;73;21115;-59
2023/01/20 12:31:18;;;;;;;52.98;22.87;;;;;;;;;;1955772;73;21030;-59
2023/01/20 12:33:48;;;;;;;76.45;35.83;;;;;;;;;;1955847;73;21117;-59
2023/01/20 12:36:18;;;;;;;89.60;38.85;;;;;;;;;;1955784;73;21464;-59
2023/01/20 12:38:54;;;;;;;45.50;19.55;;;;;;;;;;1955809;73;21017;-59
2023/01/20 12:41:24;;;;;;;31.20;13.22;;;;;;;;;;1955846;73;21043;-59
2023/01/20 12:43:54;;;;;;;26.55;13.80;;;;;;;;;;1955739;73;21046;-59
2023/01/20 12:46:30;;;;;;;19.82;10.60;;;;;;;;;;1955848;73;21475;-59
2023/01/20 12:49:15;;;;;;;27.98;14.10;;;;;;;;;;1955762;73;21116;-59
2023/01/20 12:51:57;;;;;;;40.50;18.17;;;;;;;;;;1956025;73;21480;-59
2023/01/20 12:54:36;;;;;;;41.40;17.70;;;;;;;;;;1955735;73;21045;-59
2023/01/20 12:57:17;;;;;;;76.05;33.20;;;;;;;;;;1955693;73;21042;-59
2023/01/20 12:59:47;;;;;;;44.00;21.37;;;;;;;;;;1955644;73;21139;-58
2023/01/20 13:02:21;;;;;;;22.70;14.07;;;;;;;;;;1955722;73;21580;-59
2023/01/20 13:05:00;;;;;;;25.80;13.25;;;;;;;;;;1955033;73;21116;-59
2023/01/20 13:07:30;;;;;;;31.40;16.48;;;;;;;;;;1955518;73;21114;-58
2023/01/20 13:10:00;;;;;;;24.67;13.53;;;;;;;;;;1955568;73;21421;-58
2023/01/20 13:12:42;;;;;;;29.98;14.50;;;;;;;;;;1944539;73;21093;-58
2023/01/20 13:15:14;;;;;;;27.17;13.48;;;;;;;;;;1942065;74;21007;-58
2023/01/20 13:17:50;;;;;;;24.60;12.45;;;;;;;;;;1942143;74;21027;-58
2023/01/20 13:20:20;;;;;;;43.98;19.07;;;;;;;;;;1942039;74;21011;-58
2023/01/20 13:22:50;;;;;;;30.37;14.78;;;;;;;;;;1942207;74;21030;-58
2023/01/20 13:25:19;;;;;;;25.75;13.28;;;;;;;;;;1942139;74;21018;-59
2023/01/20 13:27:49;;;;;;;25.60;12.13;;;;;;;;;;1942074;74;21022;-59
2023/01/20 13:30:36;;;;;;;32.00;14.95;;;;;;;;;;1942108;74;21112;-59
2023/01/20 13:33:05;;;;;;;31.90;16.32;;;;;;;;;;1942097;74;21499;-59
2023/01/20 13:35:35;;;;;;;32.53;15.05;;;;;;;;;;1942217;74;21050;-58
2023/01/20 13:38:03;;;;;;;30.80;14.60;;;;;;;;;;1942107;74;21449;-59
2023/01/20 13:40:41;;;;;;;26.73;14.50;;;;;;;;;;1942255;74;21027;-59
2023/01/20 13:43:26;;;;;;;26.37;13.28;;;;;;;;;;1942283;74;21088;-58
2023/01/20 13:46:05;;;;;;;27.37;14.68;;;;;;;;;;1942272;74;21116;-57
2023/01/20 13:48:34;;;;;;;33.50;14.78;;;;;;;;;;1942215;74;21042;-58
2023/01/20 13:51:16;;;;;;;29.50;15.88;;;;;;;;;;1942327;74;21038;-58
2023/01/20 13:53:45;;;;;;;35.30;17.45;;;;;;;;;;1942244;74;21014;-57
2023/01/20 13:56:27;;;;;;;40.30;18.00;;;;;;;;;;1942314;74;21031;-57
2023/01/20 13:58:59;;;;;;;36.08;16.12;;;;;;;;;;1942287;74;21082;-58
2023/01/20 14:01:28;;;;;;;32.85;15.83;;;;;;;;;;1942213;74;21003;-58
2023/01/20 14:04:01;;;;;;;26.42;14.25;;;;;;;;;;1942238;74;21022;-58
2023/01/20 14:06:32;;;;;;;23.75;13.15;;;;;;;;;;1942150;74;21046;-57
2023/01/20 14:09:04;;;;;;;29.82;14.43;;;;;;;;;;1942172;74;21484;-58
2023/01/20 14:11:33;;;;;;;33.38;15.60;;;;;;;;;;1940336;74;21567;-59
2023/01/20 14:14:04;;;;;;;33.40;14.05;;;;;;;;;;1935353;74;21030;-59
2023/01/20 14:16:34;;;;;;;26.15;13.08;;;;;;;;;;1935341;74;21062;-59
2023/01/20 14:19:04;;;;;;;32.13;16.25;;;;;;;;;;1935319;74;21113;-58
2023/01/20 14:21:33;;;;;;;30.95;15.23;;;;;;;;;;1934849;74;21000;-58
2023/01/20 14:24:03;;;;;;;33.35;15.48;;;;;;;;;;1935045;74;21469;-59
2023/01/20 14:26:32;;;;;;;30.75;15.35;;;;;;;;;;1935375;74;21093;-58
2023/01/20 14:29:06;;;;;;;32.80;16.32;;;;;;;;;;1935325;74;21038;-59
2023/01/20 14:31:39;;;;;;;36.90;19.73;;;;;;;;;;1934798;74;21469;-58
2023/01/20 14:34:03;;;;;;;37.60;19.82;;;;;;;;;;1934406;74;21469;-58
2023/01/20 14:36:32;;;;;;;40.17;20.25;;;;;;;;;;1934676;74;21117;-58
2023/01/20 14:39:02;;;;;;;35.78;19.60;;;;;;;;;;1935262;74;21534;-59
2023/01/20 14:41:32;;;;;;;42.10;22.55;;;;;;;;;;1935291;74;21030;-58
2023/01/20 14:44:01;;;;;;;50.65;20.68;;;;;;;;;;1935365;74;21137;-59
2023/01/20 14:46:31;;;;;;;38.42;21.40;;;;;;;;;;1935319;74;21015;-58
2023/01/20 14:48:59;;;;;;;48.08;23.07;;;;;;;;;;1935407;74;21096;-59
2023/01/20 14:51:28;;;;;;;48.30;25.25;;;;;;;;;;1935302;74;21101;-58
2023/01/20 14:54:15;;;;;;;39.88;21.95;;;;;;;;;;1935330;74;21101;-58
2023/01/20 14:56:45;;;;;;;36.68;20.20;;;;;;;;;;1935356;74;21035;-58